Time,TemperatureF,DewpointF,PressureIn,WindDirection,WindDirectionDegrees,WindSpeedMPH,WindSpeedGustMPH,Humidity,HourlyPrecipIn,Conditions,Clouds,dailyrainin,SoftwareType,DateUTC
2013-02-23 00:12:00,47.0,42.0,-100.00,SSW,210,2.0,3.0,83,0.00,,,0.39,,2013-02-23 05:12:00,
2013-02-23 00:23:00,47.0,42.0,-100.00,SW,233,4.0,7.0,85,0.00,,,0.31,,2013-02-23 05:23:00,
2013-02-23 00:33:00,47.0,42.0,-100.00,SW,233,4.0,7.0,85,0.00,,,0.31,,2013-02-23 05:33:00,
2013-02-23 00:42:00,46.0,42.0,-100.00,SSW,203,3.0,5.0,85,0.00,,,0.25,,2013-02-23 05:42:00,
2013-02-23 00:52:00,46.0,42.0,-100.00,SSW,203,3.0,5.0,85,0.00,,,0.25,,2013-02-23 05:52:00,
2013-02-23 01:02:00,47.0,43.0,-100.00,WSW,250,8.0,11.0,85,0.00,,,0.23,,2013-02-23 06:02:00,
2013-02-23 01:11:00,47.0,43.0,-100.00,WSW,250,8.0,11.0,85,0.00,,,0.23,,2013-02-23 06:11:00,
2013-02-23 01:23:00,47.0,42.0,-100.00,SW,230,2.0,4.0,84,0.00,,,0.19,,2013-02-23 06:23:00,
2013-02-23 01:32:00,47.0,42.0,-100.00,SW,230,2.0,4.0,84,0.00,,,0.19,,2013-02-23 06:32:00,
2013-02-23 01:42:00,47.0,42.0,-100.00,SW,230,2.0,4.0,84,0.00,,,0.19,,2013-02-23 06:42:00,
2013-02-23 01:51:00,47.0,42.0,-100.00,SW,220,1.0,2.0,85,0.00,,,0.12,,2013-02-23 06:51:00,
2013-02-23 02:01:00,46.0,42.0,-100.00,SW,217,3.0,6.0,86,0.00,,,0.05,,2013-02-23 07:01:00,
2013-02-23 02:10:00,45.0,44.0,-100.00,SW,230,2.0,3.0,95,0.01,,,0.04,,2013-02-23 07:10:00,
2013-02-23 02:11:00,46.0,42.0,-100.00,SW,217,3.0,6.0,86,0.00,,,0.05,,2013-02-23 07:11:00,
2013-02-23 02:21:00,46.0,42.0,-100.00,SW,217,3.0,6.0,86,0.00,,,0.05,,2013-02-23 07:21:00,
2013-02-23 02:32:00,46.0,43.0,-100.00,SW,220,3.0,5.0,91,0.00,,,0.03,,2013-02-23 07:32:00,
2013-02-23 02:42:00,45.0,44.0,-100.00,SW,230,2.0,3.0,95,0.01,,,0.04,,2013-02-23 07:42:00,
2013-02-23 02:50:00,45.0,44.0,-100.00,South,181,2.0,3.0,97,0.00,,,0.04,,2013-02-23 07:50:00,
2013-02-23 02:52:00,45.0,44.0,-100.00,SW,230,2.0,3.0,95,0.01,,,0.04,,2013-02-23 07:52:00,
2013-02-23 03:01:00,45.0,44.0,-100.00,SW,230,2.0,3.0,95,0.01,,,0.04,,2013-02-23 08:01:00,
2013-02-23 03:21:00,45.0,44.0,-100.00,South,181,2.0,3.0,97,0.00,,,0.04,,2013-02-23 08:21:00,
2013-02-23 03:32:00,45.0,44.0,-100.00,South,181,2.0,3.0,97,0.00,,,0.04,,2013-02-23 08:32:00,
2013-02-23 03:42:00,45.0,44.0,-100.00,South,181,2.0,3.0,97,0.00,,,0.04,,2013-02-23 08:42:00,
2013-02-23 03:50:00,45.0,44.0,-100.00,SSW,206,4.0,6.0,98,0.00,,,0.04,,2013-02-23 08:50:00,
2013-02-23 04:42:00,45.0,44.0,-100.00,SSW,206,4.0,6.0,98,0.00,,,0.04,,2013-02-23 09:42:00,
2013-02-23 05:01:00,45.0,45.0,-100.00,WSW,244,5.0,8.0,99,0.00,,,0.01,,2013-02-23 10:01:00,
2013-02-23 05:11:00,45.0,45.0,-100.00,WSW,244,5.0,8.0,99,0.00,,,0.01,,2013-02-23 10:11:00,
2013-02-23 05:21:00,45.0,44.0,-100.00,WSW,237,4.0,6.0,99,0.00,,,0.01,,2013-02-23 10:21:00,
2013-02-23 05:30:00,45.0,45.0,-100.00,WSW,247,5.0,6.0,99,0.00,,,0.02,,2013-02-23 10:30:00,
2013-02-23 05:32:00,45.0,44.0,-100.00,WSW,237,4.0,6.0,99,0.00,,,0.01,,2013-02-23 10:32:00,
2013-02-23 05:42:00,45.0,44.0,-100.00,SSW,200,2.0,4.0,99,0.00,,,0.02,,2013-02-23 10:42:00,
2013-02-23 05:51:00,45.0,44.0,-100.00,SSW,200,2.0,4.0,99,0.00,,,0.02,,2013-02-23 10:51:00,
2013-02-23 06:02:00,45.0,44.0,-100.00,SSW,200,2.0,4.0,99,0.00,,,0.02,,2013-02-23 11:02:00,
2013-02-23 06:11:00,45.0,45.0,-100.00,WSW,247,5.0,6.0,99,0.00,,,0.02,,2013-02-23 11:11:00,
2013-02-23 06:22:00,45.0,45.0,-100.00,WSW,247,5.0,6.0,99,0.00,,,0.02,,2013-02-23 11:22:00,
2013-02-23 07:02:00,45.0,44.0,-100.00,SSW,209,0.0,1.0,99,0.00,,,0.02,,2013-02-23 12:02:00,
2013-02-23 07:11:00,45.0,44.0,-100.00,SSW,209,0.0,1.0,99,0.00,,,0.02,,2013-02-23 12:11:00,
2013-02-23 07:22:00,45.0,44.0,-100.00,WSW,253,1.0,2.0,99,0.00,,,0.02,,2013-02-23 12:22:00,
2013-02-23 07:32:00,45.0,44.0,-100.00,WSW,253,1.0,2.0,99,0.00,,,0.02,,2013-02-23 12:32:00,
2013-02-23 07:42:00,45.0,44.0,-100.00,WSW,244,2.0,3.0,99,0.00,,,0.02,,2013-02-23 12:42:00,
2013-02-23 07:52:00,44.0,44.0,-100.00,SW,229,1.0,2.0,99,0.00,,,0.02,,2013-02-23 12:52:00,
2013-02-23 08:02:00,44.0,44.0,-100.00,SW,229,1.0,2.0,99,0.00,,,0.02,,2013-02-23 13:02:00,
2013-02-23 08:12:00,44.0,44.0,-100.00,SW,229,1.0,2.0,99,0.00,,,0.02,,2013-02-23 13:12:00,
2013-02-23 08:22:00,45.0,44.0,-100.00,SW,230,2.0,3.0,99,0.00,,,0.02,,2013-02-23 13:22:00,
2013-02-23 08:32:00,45.0,44.0,-100.00,SW,230,2.0,3.0,99,0.00,,,0.02,,2013-02-23 13:32:00,
2013-02-23 08:42:00,45.0,45.0,-100.00,West,263,3.0,4.0,99,0.00,,,0.02,,2013-02-23 13:42:00,
2013-02-23 08:52:00,45.0,45.0,-100.00,SW,219,2.0,4.0,99,0.00,,,0.02,,2013-02-23 13:52:00,
2013-02-23 09:02:00,45.0,45.0,-100.00,SW,219,2.0,4.0,99,0.00,,,0.02,,2013-02-23 14:02:00,
2013-02-23 09:11:00,45.0,45.0,-100.00,SW,219,2.0,4.0,99,0.00,,,0.02,,2013-02-23 14:11:00,
2013-02-23 09:22:00,45.0,45.0,-100.00,SW,227,2.0,2.0,99,0.00,,,0.02,,2013-02-23 14:22:00,
2013-02-23 09:30:00,46.0,46.0,-100.00,SSW,213,2.0,4.0,99,0.00,,,0.02,,2013-02-23 14:30:00,
2013-02-23 09:32:00,45.0,45.0,-100.00,SW,227,2.0,2.0,99,0.00,,,0.02,,2013-02-23 14:32:00,
2013-02-23 09:42:00,45.0,45.0,-100.00,SSW,206,3.0,5.0,99,0.00,,,0.02,,2013-02-23 14:42:00,
2013-02-23 09:52:00,46.0,46.0,-100.00,SSW,213,2.0,4.0,99,0.00,,,0.02,,2013-02-23 14:52:00,
2013-02-23 10:02:00,46.0,46.0,-100.00,SSW,213,2.0,4.0,99,0.00,,,0.02,,2013-02-23 15:02:00,
2013-02-23 10:11:00,46.0,46.0,-100.00,SSW,213,2.0,4.0,99,0.00,,,0.02,,2013-02-23 15:11:00,
2013-02-23 10:22:00,46.0,46.0,-100.00,SSW,213,2.0,4.0,99,0.00,,,0.02,,2013-02-23 15:22:00,
2013-02-23 10:42:00,45.0,45.0,-100.00,SW,215,2.0,5.0,99,0.00,,,0.02,,2013-02-23 15:42:00,
2013-02-23 10:52:00,45.0,45.0,-100.00,WSW,243,3.0,4.0,99,0.00,,,0.02,,2013-02-23 15:52:00,
2013-02-23 11:01:00,45.0,45.0,-100.00,WSW,243,3.0,4.0,99,0.00,,,0.02,,2013-02-23 16:01:00,
2013-02-23 11:11:00,45.0,45.0,-100.00,WSW,243,3.0,4.0,99,0.00,,,0.02,,2013-02-23 16:11:00,
2013-02-23 11:22:00,46.0,46.0,-100.00,SSW,195,1.0,3.0,99,0.00,,,0.02,,2013-02-23 16:22:00,
2013-02-23 11:32:00,46.0,46.0,-100.00,SSW,195,1.0,3.0,99,0.00,,,0.02,,2013-02-23 16:32:00,
2013-02-23 11:42:00,47.0,46.0,-100.00,South,171,2.0,3.0,98,0.00,,,0.02,,2013-02-23 16:42:00,
2013-02-23 11:52:00,47.0,46.0,-100.00,South,171,2.0,3.0,98,0.00,,,0.02,,2013-02-23 16:52:00,
2013-02-23 12:01:00,48.0,46.0,-100.00,South,176,3.0,5.0,94,0.00,,,0.02,,2013-02-23 17:01:00,
2013-02-23 12:11:00,48.0,46.0,-100.00,South,176,3.0,5.0,94,0.00,,,0.02,,2013-02-23 17:11:00,
2013-02-23 12:22:00,52.0,46.0,-100.00,SW,229,3.0,5.0,82,0.00,,,0.02,,2013-02-23 17:22:00,
2013-02-23 12:32:00,52.0,46.0,-100.00,SW,229,3.0,5.0,82,0.00,,,0.02,,2013-02-23 17:32:00,
2013-02-23 12:42:00,52.0,46.0,-100.00,SW,229,3.0,5.0,82,0.00,,,0.02,,2013-02-23 17:42:00,
2013-02-23 12:50:00,55.0,43.0,-100.00,SSW,202,5.0,7.0,63,0.00,,,0.02,,2013-02-23 17:50:00,
2013-02-23 12:52:00,54.0,44.0,-100.00,WNW,284,2.0,4.0,72,0.00,,,0.02,,2013-02-23 17:52:00,
2013-02-23 13:02:00,54.0,44.0,-100.00,WNW,284,2.0,4.0,72,0.00,,,0.02,,2013-02-23 18:02:00,
2013-02-23 13:12:00,54.0,44.0,-100.00,WNW,284,2.0,4.0,72,0.00,,,0.02,,2013-02-23 18:12:00,
2013-02-23 13:22:00,55.0,43.0,-100.00,SSW,202,5.0,7.0,63,0.00,,,0.02,,2013-02-23 18:22:00,
2013-02-23 13:32:00,55.0,43.0,-100.00,SSW,202,5.0,7.0,63,0.00,,,0.02,,2013-02-23 18:32:00,
2013-02-23 13:42:00,55.0,43.0,-100.00,SSW,202,5.0,7.0,63,0.00,,,0.02,,2013-02-23 18:42:00,
2013-02-23 14:01:00,55.0,41.0,-100.00,South,184,3.0,4.0,60,0.00,,,0.02,,2013-02-23 19:01:00,
2013-02-23 14:11:00,57.0,42.0,-100.00,SSW,193,2.0,6.0,56,0.00,,,0.02,,2013-02-23 19:11:00,
2013-02-23 14:21:00,56.0,41.0,-100.00,SSE,164,4.0,6.0,57,0.00,,,0.02,,2013-02-23 19:21:00,
2013-02-23 14:32:00,56.0,41.0,-100.00,SSE,164,4.0,6.0,57,0.00,,,0.02,,2013-02-23 19:32:00,
2013-02-23 14:42:00,56.0,40.0,-100.00,South,174,4.0,5.0,54,0.00,,,0.02,,2013-02-23 19:42:00,
2013-02-23 14:52:00,56.0,40.0,-100.00,South,174,4.0,5.0,54,0.00,,,0.02,,2013-02-23 19:52:00,
2013-02-23 15:01:00,58.0,41.0,-100.00,South,185,4.0,6.0,53,0.00,,,0.02,,2013-02-23 20:01:00,
2013-02-23 15:11:00,58.0,41.0,-100.00,South,185,4.0,6.0,53,0.00,,,0.02,,2013-02-23 20:11:00,
2013-02-23 15:22:00,58.0,41.0,-100.00,ESE,114,2.0,4.0,55,0.00,,,0.02,,2013-02-23 20:22:00,
2013-02-23 15:32:00,58.0,41.0,-100.00,ESE,114,2.0,4.0,55,0.00,,,0.02,,2013-02-23 20:32:00,
2013-02-23 15:42:00,58.0,41.0,-100.00,ESE,114,2.0,4.0,55,0.00,,,0.02,,2013-02-23 20:42:00,
2013-02-23 15:52:00,59.0,43.0,-100.00,South,176,4.0,8.0,54,0.00,,,0.02,,2013-02-23 20:52:00,
2013-02-23 16:02:00,59.0,43.0,-100.00,South,176,4.0,8.0,54,0.00,,,0.02,,2013-02-23 21:02:00,
2013-02-23 16:11:00,59.0,43.0,-100.00,South,176,4.0,8.0,54,0.00,,,0.02,,2013-02-23 21:11:00,
2013-02-23 16:22:00,56.0,43.0,-100.00,SSW,203,4.0,6.0,60,0.00,,,0.02,,2013-02-23 21:22:00,
2013-02-23 16:32:00,57.0,42.0,-100.00,South,179,4.0,9.0,58,0.00,,,0.02,,2013-02-23 21:32:00,
2013-02-23 16:42:00,57.0,42.0,-100.00,South,179,4.0,9.0,58,0.00,,,0.02,,2013-02-23 21:42:00,
2013-02-23 16:52:00,57.0,42.0,-100.00,South,179,4.0,9.0,58,0.00,,,0.02,,2013-02-23 21:52:00,
2013-02-23 17:02:00,55.0,41.0,-100.00,SSW,213,6.0,7.0,59,0.00,,,0.02,,2013-02-23 22:02:00,
2013-02-23 17:11:00,55.0,41.0,-100.00,SSW,213,6.0,7.0,59,0.00,,,0.02,,2013-02-23 22:11:00,
2013-02-23 17:22:00,55.0,41.0,-100.00,SSW,213,6.0,7.0,59,0.00,,,0.02,,2013-02-23 22:22:00,
2013-02-23 17:32:00,55.0,42.0,-100.00,SSW,199,5.0,9.0,61,0.00,,,0.02,,2013-02-23 22:32:00,
2013-02-23 17:42:00,54.0,41.0,-100.00,SSW,210,4.0,8.0,61,0.00,,,0.02,,2013-02-23 22:42:00,
2013-02-23 17:52:00,54.0,41.0,-100.00,SSW,210,4.0,8.0,61,0.00,,,0.02,,2013-02-23 22:52:00,
2013-02-23 18:01:00,54.0,42.0,-100.00,SSW,210,4.0,6.0,65,0.00,,,0.02,,2013-02-23 23:01:00,
2013-02-23 18:11:00,54.0,42.0,-100.00,SSW,210,4.0,6.0,65,0.00,,,0.02,,2013-02-23 23:11:00,
2013-02-23 18:22:00,54.0,42.0,-100.00,SSW,210,4.0,6.0,65,0.00,,,0.02,,2013-02-23 23:22:00,
2013-02-23 18:32:00,53.0,42.0,-100.00,SSW,213,5.0,7.0,67,0.00,,,0.02,,2013-02-23 23:32:00,
2013-02-23 18:42:00,52.0,42.0,-100.00,SSW,200,4.0,5.0,68,0.00,,,0.02,,2013-02-23 23:42:00,
2013-02-23 18:52:00,52.0,42.0,-100.00,SSW,200,4.0,5.0,68,0.00,,,0.02,,2013-02-23 23:52:00,
2013-02-23 19:02:00,52.0,42.0,-100.00,SW,219,2.0,2.0,70,0.00,,,0.02,,2013-02-24 00:02:00,
2013-02-23 19:11:00,52.0,42.0,-100.00,SW,219,2.0,2.0,70,0.00,,,0.02,,2013-02-24 00:11:00,
2013-02-23 19:22:00,51.0,42.0,-100.00,WSW,247,4.0,5.0,70,0.00,,,0.02,,2013-02-24 00:22:00,
2013-02-23 19:32:00,51.0,42.0,-100.00,WSW,247,4.0,5.0,70,0.00,,,0.02,,2013-02-24 00:32:00,
2013-02-23 19:42:00,51.0,42.0,-100.00,WSW,244,3.0,5.0,71,0.00,,,0.02,,2013-02-24 00:42:00,
2013-02-23 19:50:00,50.0,40.0,-100.00,WNW,302,0.0,2.0,68,0.00,,,0.02,,2013-02-24 00:50:00,
2013-02-23 19:52:00,51.0,42.0,-100.00,WSW,244,3.0,5.0,71,0.00,,,0.02,,2013-02-24 00:52:00,
2013-02-23 20:01:00,51.0,42.0,-100.00,WSW,237,2.0,4.0,71,0.00,,,0.02,,2013-02-24 01:01:00,
2013-02-23 20:11:00,51.0,42.0,-100.00,WSW,237,2.0,4.0,71,0.00,,,0.02,,2013-02-24 01:11:00,
2013-02-23 20:22:00,50.0,40.0,-100.00,WNW,302,0.0,2.0,68,0.00,,,0.02,,2013-02-24 01:22:00,
2013-02-23 20:32:00,50.0,40.0,-100.00,WNW,302,0.0,2.0,68,0.00,,,0.02,,2013-02-24 01:32:00,
2013-02-23 20:42:00,50.0,40.0,-100.00,WNW,302,0.0,2.0,68,0.00,,,0.02,,2013-02-24 01:42:00,
2013-02-23 21:10:00,48.0,36.0,-100.00,WNW,301,3.0,5.0,64,0.00,,,0.02,,2013-02-24 02:10:00,
2013-02-23 21:22:00,48.0,37.0,-100.00,NNW,333,4.0,7.0,65,0.00,,,0.02,,2013-02-24 02:22:00,
2013-02-23 21:32:00,48.0,37.0,-100.00,NNW,333,4.0,7.0,65,0.00,,,0.02,,2013-02-24 02:32:00,
2013-02-23 21:42:00,48.0,36.0,-100.00,WNW,301,3.0,5.0,64,0.00,,,0.02,,2013-02-24 02:42:00,
2013-02-23 21:52:00,48.0,36.0,-100.00,WNW,301,3.0,5.0,64,0.00,,,0.02,,2013-02-24 02:52:00,
2013-02-23 22:02:00,48.0,36.0,-100.00,WNW,301,3.0,5.0,64,0.00,,,0.02,,2013-02-24 03:02:00,
2013-02-23 23:02:00,44.0,36.0,-100.00,North,359,5.0,10.0,72,0.00,,,0.02,,2013-02-24 04:02:00,
2013-02-23 23:11:00,44.0,36.0,-100.00,North,359,5.0,10.0,72,0.00,,,0.02,,2013-02-24 04:11:00,
2013-02-23 23:22:00,43.0,35.0,-100.00,ESE,107,3.0,4.0,74,0.00,,,0.02,,2013-02-24 04:22:00,
2013-02-23 23:32:00,43.0,35.0,-100.00,ESE,107,3.0,4.0,74,0.00,,,0.02,,2013-02-24 04:32:00,
2013-02-23 23:42:00,42.0,35.0,-100.00,NE,38,4.0,6.0,76,0.00,,,0.02,,2013-02-24 04:42:00,
2013-02-23 23:52:00,42.0,35.0,-100.00,NE,38,4.0,6.0,76,0.00,,,0.02,,2013-02-24 04:52:00,